• Join FlightAware (Why Join?)
  • Login
  • US Flag 
08:48AM EDT


 

Airport Tracker/Info


-or-


 

Live Flight TrackerFlight Track Log ✈ KAP169 ✈ 18-May-2013 ✈ KBOS - KRKD

Flight Track Log - Related Links

Times and Time Zones

All times are in EDT time to prevent confusion due to time zone crossing. See the KAP169 flight status page for this flight to view local times or setup timezone preferences in your user account.

Time Position Orientation Groundspeed Altitude Reporting Facility
EDT Latitude Longitude Course Direction KTS MPH feet Rate Location/Type
02:18PM 42.3833 -71.0000 20° North 129 148 500  Level KA90
02:19PM 42.4167 -70.9833 20° North 124 143 1,200 780 Climbing KA90
02:20PM 42.4500 -70.9500 36° Northeast 132 152 2,000 720 Climbing KA90
02:21PM 42.4667 -70.9333 36° Northeast 135 155 2,700 660 Climbing KA90
02:22PM 42.5000 -70.9000 36° Northeast 143 165 3,400 660 Climbing KA90
02:23PM 42.5333 -70.8500 48° Northeast 146 168 4,100 600 Climbing KA90
02:24PM 42.5667 -70.8167 36° Northeast 150 173 4,600 540 Climbing KA90
02:25PM 42.6000 -70.7833 36° Northeast 149 171 5,200 420 Climbing KA90
02:26PM 42.6333 -70.7500 36° Northeast 159 183 5,500 120 Climbing KA90
02:27PM 42.6667 -70.7000 48° Northeast 171 197 5,500  Level KA90
02:28PM 42.7000 -70.6667 36° Northeast 164 189 5,500  Level KA90
02:29PM 42.7500 -70.6333 26° Northeast 162 186 5,500  Level KA90
02:30PM 42.7833 -70.5833 48° Northeast 162 186 5,500  Level KA90
02:31PM 42.8167 -70.5500 36° Northeast 165 190 5,500  Level KA90
02:32PM 42.8500 -70.5167 36° Northeast 164 189 5,500  Level KA90
02:33PM 42.8833 -70.4667 48° Northeast 164 189 5,500  Level KA90
02:34PM 42.9167 -70.4333 36° Northeast 164 189 5,500  Level KA90
02:35PM 42.9500 -70.3833 48° Northeast 165 190 5,500  Level KA90
02:37PM 42.9993 -70.3277 40° Northeast  Level Estimated
02:44PM 43.2168 -70.0806 40° Northeast  Level Estimated
02:45PM 43.2478 -70.0451 40° Northeast  Level Estimated
02:46PM 43.2788 -70.0096 40° Northeast  Level Estimated
02:47PM 43.3098 -69.9741 40° Northeast  Level Estimated
02:48PM 43.3408 -69.9385 40° Northeast  Level Estimated
02:49PM 43.3718 -69.9029 40° Northeast  Level Estimated
02:50PM 43.4027 -69.8673 40° Northeast  Level Estimated
02:51PM 43.4337 -69.8316 40° Northeast  Level Estimated
02:52PM 43.4646 -69.7960 40° Northeast  Level Estimated
02:53PM 43.4956 -69.7602 40° Northeast  Level Estimated
02:54PM 43.5265 -69.7244 40° Northeast  Level Estimated
02:55PM 43.5574 -69.6886 40° Northeast  Level Estimated
02:56PM 43.5883 -69.6528 40° Northeast  Level Estimated
02:57PM 43.6192 -69.6169 40° Northeast  Level Estimated
02:58PM 43.6501 -69.5810 40° Northeast  Level Estimated
02:59PM 43.6810 -69.5450 40° Northeast  Level Estimated
03:00PM 43.7118 -69.5090 40° Northeast  Level Estimated
03:01PM 43.7427 -69.4730 40° Northeast  Level Estimated
03:02PM 43.7735 -69.4369 40° Northeast  Level Estimated
03:03PM 43.8043 -69.4008 40° Northeast  Level Estimated
03:04PM 43.8351 -69.3646 40° Northeast  Level Estimated
03:05PM 43.8659 -69.3285 40° Northeast  Level Estimated
03:06PM 43.8967 -69.2923 40° Northeast  Level Estimated
03:07PM 43.9275 -69.2560 40° Northeast  Level Estimated
03:08PM 43.9583 -69.2197 40° Northeast  Level Estimated
03:09PM 43.9890 -69.1834 40° Northeast  Level Estimated
03:10PM 44.0198 -69.1470 40° Northeast  Level Estimated
03:11PM 44.0505 -69.1106 40° Northeast  Level Estimated
03:12PM 44.0601 -69.0993 40° Northeast  Level Estimated
03:13PM 44.0601 -69.0993 28° Northeast  Level Estimated
03:14PM 44.0601 -69.0993 28° Northeast  Level Estimated
03:15PM 44.0601 -69.0993 28° Northeast  Level Estimated
03:16PM 44.0601 -69.0993 28° Northeast  Level Estimated
03:17PM 44.0601 -69.0993 28° Northeast  Level Estimated
03:18PM 44.0601 -69.0993 28° Northeast  Level Estimated
03:19PM 44.0601 -69.0993 28° Northeast  Level Estimated
03:20PM 44.0601 -69.0993 28° Northeast  Level Estimated
03:21PM 44.0601 -69.0993 28° Northeast  Level Estimated
03:22PM 44.0601 -69.0993 28° Northeast  Level Estimated
03:23PM 44.0601 -69.0993 28° Northeast  Level Estimated
03:24PM 44.0601 -69.0993 28° Northeast  Level Estimated
03:25PM 44.0601 -69.0993 28° Northeast  Level Estimated
03:26PM 44.0601 -69.0993 28° Northeast  Level Estimated
03:27PM 44.0601 -69.0993 28° Northeast  Level Estimated
03:28PM 44.0601 -69.0993 28° Northeast  Level Estimated
03:29PM 44.0601 -69.0993 28° Northeast  Level Estimated
03:30PM 44.0601 -69.0993 28° Northeast  Level Estimated
03:31PM 44.0601 -69.0993 28° Northeast  Level Estimated
03:32PM 44.0601 -69.0993 28° Northeast  Level Estimated
03:33PM 44.0601 -69.0993 28° Northeast  Level Estimated
03:34PM 44.0601 -69.0993 28° Northeast  Level Estimated
03:35PM 44.0601 -69.0993 28° Northeast  Level Estimated
03:36PM 44.0601 -69.0993 28° Northeast  Level Estimated
03:37PM 44.0601 -69.0993 28° Northeast  Level Estimated